sensor_id;sensor_type;location;lat;lon;timestamp;P1;durP1;ratioP1;P2;durP2;ratioP2
357;SDS011;167;47.558;7.602;2022-12-05T00:00:57;9.30;;;7.47;;
357;SDS011;167;47.558;7.602;2022-12-05T00:03:24;7.43;;;6.37;;
357;SDS011;167;47.558;7.602;2022-12-05T00:05:50;8.77;;;6.50;;
357;SDS011;167;47.558;7.602;2022-12-05T00:08:16;10.07;;;8.07;;
357;SDS011;167;47.558;7.602;2022-12-05T00:10:42;9.00;;;6.50;;
357;SDS011;167;47.558;7.602;2022-12-05T00:13:08;9.27;;;6.53;;
357;SDS011;167;47.558;7.602;2022-12-05T00:15:36;6.70;;;6.00;;
357;SDS011;167;47.558;7.602;2022-12-05T00:18:02;7.53;;;6.20;;
357;SDS011;167;47.558;7.602;2022-12-05T00:20:28;10.40;;;6.80;;
357;SDS011;167;47.558;7.602;2022-12-05T00:22:54;8.67;;;6.40;;
357;SDS011;167;47.558;7.602;2022-12-05T00:25:20;8.60;;;7.07;;
357;SDS011;167;47.558;7.602;2022-12-05T00:27:46;9.27;;;6.70;;
357;SDS011;167;47.558;7.602;2022-12-05T00:30:12;7.63;;;6.83;;
357;SDS011;167;47.558;7.602;2022-12-05T00:32:38;7.50;;;6.50;;
357;SDS011;167;47.558;7.602;2022-12-05T00:35:04;9.47;;;6.17;;
357;SDS011;167;47.558;7.602;2022-12-05T00:37:30;9.67;;;7.40;;
357;SDS011;167;47.558;7.602;2022-12-05T00:39:56;8.30;;;7.10;;
357;SDS011;167;47.558;7.602;2022-12-05T00:42:22;9.73;;;6.50;;
357;SDS011;167;47.558;7.602;2022-12-05T00:44:48;9.00;;;6.57;;
357;SDS011;167;47.558;7.602;2022-12-05T00:47:15;8.20;;;7.27;;
357;SDS011;167;47.558;7.602;2022-12-05T00:49:41;8.93;;;6.50;;
357;SDS011;167;47.558;7.602;2022-12-05T00:52:07;9.20;;;6.33;;
357;SDS011;167;47.558;7.602;2022-12-05T00:54:33;10.00;;;7.00;;
357;SDS011;167;47.558;7.602;2022-12-05T00:56:59;7.13;;;6.20;;
357;SDS011;167;47.558;7.602;2022-12-05T00:59:25;8.60;;;6.87;;
357;SDS011;167;47.558;7.602;2022-12-05T01:01:51;8.07;;;5.97;;
357;SDS011;167;47.558;7.602;2022-12-05T01:04:21;12.27;;;7.80;;
357;SDS011;167;47.558;7.602;2022-12-05T01:06:48;9.10;;;7.20;;
357;SDS011;167;47.558;7.602;2022-12-05T01:09:15;7.37;;;6.70;;
357;SDS011;167;47.558;7.602;2022-12-05T01:11:42;9.97;;;7.13;;
357;SDS011;167;47.558;7.602;2022-12-05T01:14:09;8.23;;;6.27;;
357;SDS011;167;47.558;7.602;2022-12-05T01:16:36;8.10;;;7.30;;
357;SDS011;167;47.558;7.602;2022-12-05T01:19:06;11.93;;;8.30;;
357;SDS011;167;47.558;7.602;2022-12-05T01:21:32;9.60;;;7.63;;
357;SDS011;167;47.558;7.602;2022-12-05T01:23:58;11.37;;;7.70;;
357;SDS011;167;47.558;7.602;2022-12-05T01:26:24;9.27;;;6.67;;
357;SDS011;167;47.558;7.602;2022-12-05T01:28:50;7.93;;;6.80;;
357;SDS011;167;47.558;7.602;2022-12-05T01:31:18;10.47;;;7.40;;
357;SDS011;167;47.558;7.602;2022-12-05T01:33:46;7.80;;;6.90;;
357;SDS011;167;47.558;7.602;2022-12-05T01:36:12;9.27;;;7.27;;
357;SDS011;167;47.558;7.602;2022-12-05T01:38:39;11.00;;;7.03;;
357;SDS011;167;47.558;7.602;2022-12-05T01:41:06;11.77;;;8.53;;
357;SDS011;167;47.558;7.602;2022-12-05T01:43:32;11.57;;;7.30;;
357;SDS011;167;47.558;7.602;2022-12-05T01:45:58;10.83;;;8.77;;
357;SDS011;167;47.558;7.602;2022-12-05T01:48:26;9.67;;;7.40;;
357;SDS011;167;47.558;7.602;2022-12-05T01:50:55;9.60;;;8.10;;
357;SDS011;167;47.558;7.602;2022-12-05T01:53:22;7.50;;;6.73;;
357;SDS011;167;47.558;7.602;2022-12-05T01:55:49;10.10;;;7.17;;
357;SDS011;167;47.558;7.602;2022-12-05T01:58:15;8.67;;;6.97;;
357;SDS011;167;47.558;7.602;2022-12-05T02:00:42;8.23;;;6.90;;
357;SDS011;167;47.558;7.602;2022-12-05T02:03:09;9.47;;;7.23;;
357;SDS011;167;47.558;7.602;2022-12-05T02:05:36;9.03;;;6.53;;
357;SDS011;167;47.558;7.602;2022-12-05T02:08:06;8.77;;;6.70;;
357;SDS011;167;47.558;7.602;2022-12-05T02:10:37;9.10;;;7.40;;
357;SDS011;167;47.558;7.602;2022-12-05T02:13:10;10.60;;;7.70;;
357;SDS011;167;47.558;7.602;2022-12-05T02:23:01;9.83;;;6.93;;
357;SDS011;167;47.558;7.602;2022-12-05T02:25:52;8.33;;;7.43;;
357;SDS011;167;47.558;7.602;2022-12-05T02:31:08;7.73;;;6.73;;
357;SDS011;167;47.558;7.602;2022-12-05T02:33:44;9.17;;;7.63;;
357;SDS011;167;47.558;7.602;2022-12-05T02:36:15;9.03;;;7.60;;
357;SDS011;167;47.558;7.602;2022-12-05T02:41:16;10.03;;;7.63;;
357;SDS011;167;47.558;7.602;2022-12-05T02:43:48;9.47;;;6.90;;
357;SDS011;167;47.558;7.602;2022-12-05T02:46:18;8.37;;;7.00;;
357;SDS011;167;47.558;7.602;2022-12-05T02:48:45;7.87;;;7.07;;
357;SDS011;167;47.558;7.602;2022-12-05T02:51:13;7.83;;;7.03;;
357;SDS011;167;47.558;7.602;2022-12-05T02:53:41;9.57;;;7.87;;
357;SDS011;167;47.558;7.602;2022-12-05T02:56:09;11.07;;;7.50;;
357;SDS011;167;47.558;7.602;2022-12-05T02:58:37;9.77;;;8.67;;
357;SDS011;167;47.558;7.602;2022-12-05T03:01:05;9.67;;;7.17;;
357;SDS011;167;47.558;7.602;2022-12-05T03:03:31;8.43;;;7.50;;
357;SDS011;167;47.558;7.602;2022-12-05T03:08:24;8.57;;;6.20;;
357;SDS011;167;47.558;7.602;2022-12-05T03:10:51;8.57;;;7.67;;
357;SDS011;167;47.558;7.602;2022-12-05T03:13:20;10.10;;;8.27;;
357;SDS011;167;47.558;7.602;2022-12-05T03:15:51;9.70;;;7.03;;
357;SDS011;167;47.558;7.602;2022-12-05T03:18:23;11.13;;;8.07;;
357;SDS011;167;47.558;7.602;2022-12-05T03:20:52;8.90;;;8.00;;
357;SDS011;167;47.558;7.602;2022-12-05T03:23:20;7.90;;;7.10;;
357;SDS011;167;47.558;7.602;2022-12-05T03:29:00;8.47;;;7.13;;
357;SDS011;167;47.558;7.602;2022-12-05T03:31:43;6.07;;;5.57;;
357;SDS011;167;47.558;7.602;2022-12-05T03:34:12;7.57;;;6.63;;
357;SDS011;167;47.558;7.602;2022-12-05T03:36:39;7.83;;;5.90;;
357;SDS011;167;47.558;7.602;2022-12-05T03:39:11;8.47;;;7.67;;
357;SDS011;167;47.558;7.602;2022-12-05T03:41:41;8.60;;;7.20;;
357;SDS011;167;47.558;7.602;2022-12-05T03:44:16;7.90;;;6.87;;
357;SDS011;167;47.558;7.602;2022-12-05T03:46:45;10.37;;;6.53;;
357;SDS011;167;47.558;7.602;2022-12-05T03:49:17;10.23;;;7.60;;
357;SDS011;167;47.558;7.602;2022-12-05T03:52:04;7.83;;;6.53;;
357;SDS011;167;47.558;7.602;2022-12-05T03:54:37;7.40;;;6.07;;
357;SDS011;167;47.558;7.602;2022-12-05T03:57:50;7.20;;;6.50;;
357;SDS011;167;47.558;7.602;2022-12-05T03:59:58;8.23;;;7.53;;
357;SDS011;167;47.558;7.602;2022-12-05T04:02:30;7.23;;;6.53;;
357;SDS011;167;47.558;7.602;2022-12-05T04:05:03;8.37;;;6.40;;
357;SDS011;167;47.558;7.602;2022-12-05T04:07:31;7.80;;;6.60;;
357;SDS011;167;47.558;7.602;2022-12-05T04:10:00;8.37;;;7.53;;
357;SDS011;167;47.558;7.602;2022-12-05T04:12:28;9.30;;;7.37;;
357;SDS011;167;47.558;7.602;2022-12-05T04:14:56;8.00;;;7.23;;
357;SDS011;167;47.558;7.602;2022-12-05T04:19:57;9.67;;;6.87;;
357;SDS011;167;47.558;7.602;2022-12-05T04:22:44;7.97;;;7.17;;
357;SDS011;167;47.558;7.602;2022-12-05T04:25:11;7.23;;;6.50;;
357;SDS011;167;47.558;7.602;2022-12-05T04:30:43;11.40;;;7.37;;
357;SDS011;167;47.558;7.602;2022-12-05T04:33:33;7.00;;;5.77;;
357;SDS011;167;47.558;7.602;2022-12-05T04:36:02;9.07;;;6.20;;
357;SDS011;167;47.558;7.602;2022-12-05T04:38:36;7.70;;;6.90;;
357;SDS011;167;47.558;7.602;2022-12-05T04:41:05;7.03;;;6.13;;
357;SDS011;167;47.558;7.602;2022-12-05T04:43:33;8.73;;;7.37;;
357;SDS011;167;47.558;7.602;2022-12-05T04:46:00;6.70;;;6.10;;
357;SDS011;167;47.558;7.602;2022-12-05T04:48:28;10.30;;;7.03;;
357;SDS011;167;47.558;7.602;2022-12-05T04:50:54;6.80;;;6.17;;
357;SDS011;167;47.558;7.602;2022-12-05T04:53:25;7.80;;;7.00;;
357;SDS011;167;47.558;7.602;2022-12-05T04:55:53;7.63;;;6.93;;
357;SDS011;167;47.558;7.602;2022-12-05T04:58:21;7.60;;;6.80;;
357;SDS011;167;47.558;7.602;2022-12-05T05:00:52;6.90;;;6.20;;
357;SDS011;167;47.558;7.602;2022-12-05T05:03:27;5.33;;;4.80;;
357;SDS011;167;47.558;7.602;2022-12-05T05:05:54;7.27;;;6.67;;
357;SDS011;167;47.558;7.602;2022-12-05T05:08:22;8.20;;;6.10;;
357;SDS011;167;47.558;7.602;2022-12-05T05:10:51;7.30;;;6.57;;
357;SDS011;167;47.558;7.602;2022-12-05T05:13:19;7.27;;;6.57;;
357;SDS011;167;47.558;7.602;2022-12-05T05:15:45;11.17;;;7.00;;
357;SDS011;167;47.558;7.602;2022-12-05T05:18:11;7.23;;;6.47;;
357;SDS011;167;47.558;7.602;2022-12-05T05:20:37;7.47;;;6.77;;
357;SDS011;167;47.558;7.602;2022-12-05T05:23:03;8.00;;;6.93;;
357;SDS011;167;47.558;7.602;2022-12-05T05:25:29;8.80;;;7.87;;
357;SDS011;167;47.558;7.602;2022-12-05T05:27:55;7.33;;;6.60;;
357;SDS011;167;47.558;7.602;2022-12-05T05:30:22;9.40;;;7.50;;
357;SDS011;167;47.558;7.602;2022-12-05T05:32:48;7.70;;;6.70;;
357;SDS011;167;47.558;7.602;2022-12-05T05:35:14;8.87;;;7.57;;
357;SDS011;167;47.558;7.602;2022-12-05T05:37:40;7.93;;;7.13;;
357;SDS011;167;47.558;7.602;2022-12-05T05:40:06;8.00;;;7.17;;
357;SDS011;167;47.558;7.602;2022-12-05T05:42:33;8.50;;;7.60;;
357;SDS011;167;47.558;7.602;2022-12-05T05:44:59;8.37;;;7.47;;
357;SDS011;167;47.558;7.602;2022-12-05T05:47:25;9.17;;;8.20;;
357;SDS011;167;47.558;7.602;2022-12-05T05:49:51;10.03;;;9.03;;
357;SDS011;167;47.558;7.602;2022-12-05T05:52:17;10.27;;;7.40;;
357;SDS011;167;47.558;7.602;2022-12-05T05:54:43;10.47;;;8.03;;
357;SDS011;167;47.558;7.602;2022-12-05T05:57:09;7.10;;;6.50;;
357;SDS011;167;47.558;7.602;2022-12-05T05:59:35;11.57;;;8.20;;
357;SDS011;167;47.558;7.602;2022-12-05T06:02:01;9.30;;;7.97;;
357;SDS011;167;47.558;7.602;2022-12-05T06:04:27;12.00;;;8.40;;
357;SDS011;167;47.558;7.602;2022-12-05T06:06:52;7.90;;;6.47;;
357;SDS011;167;47.558;7.602;2022-12-05T06:09:18;11.53;;;7.50;;
357;SDS011;167;47.558;7.602;2022-12-05T06:11:44;8.53;;;7.50;;
357;SDS011;167;47.558;7.602;2022-12-05T06:14:10;9.43;;;6.90;;
357;SDS011;167;47.558;7.602;2022-12-05T06:16:36;10.13;;;8.07;;
357;SDS011;167;47.558;7.602;2022-12-05T06:19:02;8.50;;;7.67;;
357;SDS011;167;47.558;7.602;2022-12-05T06:21:28;8.63;;;7.73;;
357;SDS011;167;47.558;7.602;2022-12-05T06:23:54;9.90;;;7.60;;
357;SDS011;167;47.558;7.602;2022-12-05T06:26:21;11.53;;;8.37;;
357;SDS011;167;47.558;7.602;2022-12-05T06:28:47;6.13;;;5.63;;
357;SDS011;167;47.558;7.602;2022-12-05T06:31:15;8.30;;;6.27;;
357;SDS011;167;47.558;7.602;2022-12-05T06:33:41;8.43;;;7.20;;
357;SDS011;167;47.558;7.602;2022-12-05T06:36:08;7.60;;;6.00;;
357;SDS011;167;47.558;7.602;2022-12-05T06:38:34;8.60;;;5.57;;
357;SDS011;167;47.558;7.602;2022-12-05T06:41:03;6.67;;;6.07;;
357;SDS011;167;47.558;7.602;2022-12-05T06:43:29;9.13;;;5.97;;
357;SDS011;167;47.558;7.602;2022-12-05T06:45:55;6.93;;;6.33;;
357;SDS011;167;47.558;7.602;2022-12-05T06:48:21;7.47;;;5.53;;
357;SDS011;167;47.558;7.602;2022-12-05T06:50:51;6.53;;;5.93;;
357;SDS011;167;47.558;7.602;2022-12-05T06:53:20;7.03;;;6.33;;
357;SDS011;167;47.558;7.602;2022-12-05T06:55:56;7.93;;;6.87;;
357;SDS011;167;47.558;7.602;2022-12-05T06:58:22;7.63;;;6.83;;
357;SDS011;167;47.558;7.602;2022-12-05T07:00:48;8.23;;;7.43;;
357;SDS011;167;47.558;7.602;2022-12-05T07:03:33;7.50;;;6.77;;
357;SDS011;167;47.558;7.602;2022-12-05T07:06:00;9.87;;;7.20;;
357;SDS011;167;47.558;7.602;2022-12-05T07:08:26;10.17;;;6.73;;
357;SDS011;167;47.558;7.602;2022-12-05T07:10:52;8.13;;;6.30;;
357;SDS011;167;47.558;7.602;2022-12-05T07:13:18;7.57;;;5.97;;
357;SDS011;167;47.558;7.602;2022-12-05T07:15:47;7.73;;;6.63;;
357;SDS011;167;47.558;7.602;2022-12-05T07:18:13;7.27;;;6.57;;
357;SDS011;167;47.558;7.602;2022-12-05T07:20:40;7.10;;;5.60;;
357;SDS011;167;47.558;7.602;2022-12-05T07:23:06;7.07;;;6.40;;
357;SDS011;167;47.558;7.602;2022-12-05T07:25:32;8.03;;;6.70;;
357;SDS011;167;47.558;7.602;2022-12-05T07:27:58;6.80;;;6.30;;
357;SDS011;167;47.558;7.602;2022-12-05T07:30:24;8.40;;;6.63;;
357;SDS011;167;47.558;7.602;2022-12-05T07:32:50;8.40;;;6.73;;
357;SDS011;167;47.558;7.602;2022-12-05T07:35:16;9.17;;;7.03;;
357;SDS011;167;47.558;7.602;2022-12-05T07:37:42;8.17;;;7.47;;
357;SDS011;167;47.558;7.602;2022-12-05T07:40:08;7.20;;;6.50;;
357;SDS011;167;47.558;7.602;2022-12-05T07:42:35;10.67;;;6.57;;
357;SDS011;167;47.558;7.602;2022-12-05T07:45:01;7.03;;;5.80;;
357;SDS011;167;47.558;7.602;2022-12-05T07:47:28;12.03;;;7.70;;
357;SDS011;167;47.558;7.602;2022-12-05T07:49:54;10.07;;;7.30;;
357;SDS011;167;47.558;7.602;2022-12-05T07:52:20;7.13;;;6.40;;
357;SDS011;167;47.558;7.602;2022-12-05T07:54:46;7.07;;;6.20;;
357;SDS011;167;47.558;7.602;2022-12-05T07:57:12;7.97;;;7.07;;
357;SDS011;167;47.558;7.602;2022-12-05T07:59:38;8.27;;;7.50;;
357;SDS011;167;47.558;7.602;2022-12-05T08:02:04;10.80;;;8.50;;
357;SDS011;167;47.558;7.602;2022-12-05T08:04:30;8.93;;;8.13;;
357;SDS011;167;47.558;7.602;2022-12-05T08:06:56;11.40;;;7.40;;
357;SDS011;167;47.558;7.602;2022-12-05T08:09:22;10.47;;;8.00;;
357;SDS011;167;47.558;7.602;2022-12-05T08:11:48;8.83;;;7.93;;
357;SDS011;167;47.558;7.602;2022-12-05T08:14:14;9.90;;;8.43;;
357;SDS011;167;47.558;7.602;2022-12-05T08:16:40;11.23;;;8.03;;
357;SDS011;167;47.558;7.602;2022-12-05T08:19:07;10.17;;;8.23;;
357;SDS011;167;47.558;7.602;2022-12-05T08:21:33;8.60;;;7.70;;
357;SDS011;167;47.558;7.602;2022-12-05T08:24:00;9.87;;;9.00;;
357;SDS011;167;47.558;7.602;2022-12-05T08:26:29;10.10;;;8.27;;
357;SDS011;167;47.558;7.602;2022-12-05T08:28:56;10.27;;;7.37;;
357;SDS011;167;47.558;7.602;2022-12-05T08:31:23;9.97;;;8.97;;
357;SDS011;167;47.558;7.602;2022-12-05T08:33:50;8.33;;;7.60;;
357;SDS011;167;47.558;7.602;2022-12-05T08:36:16;10.97;;;9.70;;
357;SDS011;167;47.558;7.602;2022-12-05T08:38:43;9.00;;;7.80;;
357;SDS011;167;47.558;7.602;2022-12-05T08:41:10;9.20;;;7.80;;
357;SDS011;167;47.558;7.602;2022-12-05T08:43:36;11.60;;;10.27;;
357;SDS011;167;47.558;7.602;2022-12-05T08:46:03;10.93;;;8.50;;
357;SDS011;167;47.558;7.602;2022-12-05T08:48:29;10.47;;;8.30;;
357;SDS011;167;47.558;7.602;2022-12-05T08:50:56;11.33;;;9.13;;
357;SDS011;167;47.558;7.602;2022-12-05T08:53:22;10.63;;;9.13;;
357;SDS011;167;47.558;7.602;2022-12-05T08:55:48;10.70;;;9.50;;
357;SDS011;167;47.558;7.602;2022-12-05T08:58:14;8.87;;;7.87;;
357;SDS011;167;47.558;7.602;2022-12-05T09:00:41;9.70;;;8.70;;
357;SDS011;167;47.558;7.602;2022-12-05T09:03:08;9.13;;;8.23;;
357;SDS011;167;47.558;7.602;2022-12-05T09:05:34;8.90;;;8.10;;
357;SDS011;167;47.558;7.602;2022-12-05T09:08:00;13.10;;;9.00;;
357;SDS011;167;47.558;7.602;2022-12-05T09:10:26;9.73;;;8.67;;
357;SDS011;167;47.558;7.602;2022-12-05T09:12:52;10.47;;;8.53;;
357;SDS011;167;47.558;7.602;2022-12-05T09:15:18;10.20;;;9.20;;
357;SDS011;167;47.558;7.602;2022-12-05T09:17:44;9.30;;;8.17;;
357;SDS011;167;47.558;7.602;2022-12-05T09:20:11;9.97;;;8.47;;
357;SDS011;167;47.558;7.602;2022-12-05T09:22:38;9.63;;;8.70;;
357;SDS011;167;47.558;7.602;2022-12-05T09:25:04;8.87;;;7.03;;
357;SDS011;167;47.558;7.602;2022-12-05T09:27:30;8.90;;;7.97;;
357;SDS011;167;47.558;7.602;2022-12-05T09:29:56;8.70;;;7.73;;
357;SDS011;167;47.558;7.602;2022-12-05T09:32:22;8.70;;;7.80;;
357;SDS011;167;47.558;7.602;2022-12-05T09:34:48;9.20;;;8.30;;
357;SDS011;167;47.558;7.602;2022-12-05T09:37:14;10.27;;;9.17;;
357;SDS011;167;47.558;7.602;2022-12-05T09:39:42;10.30;;;8.80;;
357;SDS011;167;47.558;7.602;2022-12-05T09:42:15;8.47;;;7.53;;
357;SDS011;167;47.558;7.602;2022-12-05T09:45:04;10.17;;;7.90;;
357;SDS011;167;47.558;7.602;2022-12-05T09:47:47;8.33;;;7.57;;
357;SDS011;167;47.558;7.602;2022-12-05T09:50:24;7.80;;;7.07;;
357;SDS011;167;47.558;7.602;2022-12-05T09:53:03;9.30;;;8.40;;
357;SDS011;167;47.558;7.602;2022-12-05T09:55:34;9.60;;;8.23;;
357;SDS011;167;47.558;7.602;2022-12-05T09:58:01;9.27;;;8.30;;
357;SDS011;167;47.558;7.602;2022-12-05T10:00:28;9.07;;;7.97;;
357;SDS011;167;47.558;7.602;2022-12-05T10:05:26;8.20;;;7.50;;
357;SDS011;167;47.558;7.602;2022-12-05T10:18:02;9.33;;;8.43;;
357;SDS011;167;47.558;7.602;2022-12-05T10:20:34;7.30;;;6.60;;
357;SDS011;167;47.558;7.602;2022-12-05T10:23:02;7.53;;;6.83;;
357;SDS011;167;47.558;7.602;2022-12-05T10:25:30;12.93;;;8.60;;
357;SDS011;167;47.558;7.602;2022-12-05T10:27:58;12.53;;;8.33;;
357;SDS011;167;47.558;7.602;2022-12-05T10:30:26;8.90;;;8.00;;
357;SDS011;167;47.558;7.602;2022-12-05T10:32:58;9.13;;;8.27;;
357;SDS011;167;47.558;7.602;2022-12-05T10:35:25;8.10;;;7.30;;
357;SDS011;167;47.558;7.602;2022-12-05T10:37:56;9.33;;;8.47;;
357;SDS011;167;47.558;7.602;2022-12-05T10:40:24;9.60;;;8.70;;
357;SDS011;167;47.558;7.602;2022-12-05T10:42:51;8.00;;;7.20;;
357;SDS011;167;47.558;7.602;2022-12-05T10:45:18;10.07;;;9.07;;
357;SDS011;167;47.558;7.602;2022-12-05T10:47:45;9.80;;;8.80;;
357;SDS011;167;47.558;7.602;2022-12-05T10:52:43;10.80;;;9.47;;
357;SDS011;167;47.558;7.602;2022-12-05T10:55:13;9.40;;;8.57;;
357;SDS011;167;47.558;7.602;2022-12-05T10:57:40;9.80;;;8.80;;
357;SDS011;167;47.558;7.602;2022-12-05T11:00:10;9.10;;;8.37;;
357;SDS011;167;47.558;7.602;2022-12-05T11:02:37;8.60;;;7.80;;
357;SDS011;167;47.558;7.602;2022-12-05T11:05:04;9.07;;;8.30;;
357;SDS011;167;47.558;7.602;2022-12-05T11:09:57;9.63;;;8.63;;
357;SDS011;167;47.558;7.602;2022-12-05T11:12:45;8.27;;;7.40;;
357;SDS011;167;47.558;7.602;2022-12-05T11:17:49;8.73;;;8.03;;
357;SDS011;167;47.558;7.602;2022-12-05T11:22:51;9.57;;;8.73;;
357;SDS011;167;47.558;7.602;2022-12-05T11:27:53;9.30;;;8.50;;
357;SDS011;167;47.558;7.602;2022-12-05T11:30:23;9.50;;;8.80;;
357;SDS011;167;47.558;7.602;2022-12-05T11:33:02;9.53;;;8.73;;
357;SDS011;167;47.558;7.602;2022-12-05T11:35:35;10.03;;;9.03;;
357;SDS011;167;47.558;7.602;2022-12-05T11:38:02;12.50;;;11.37;;
357;SDS011;167;47.558;7.602;2022-12-05T11:40:39;9.43;;;8.67;;
357;SDS011;167;47.558;7.602;2022-12-05T11:45:51;7.77;;;7.07;;
357;SDS011;167;47.558;7.602;2022-12-05T11:48:45;7.87;;;7.17;;
357;SDS011;167;47.558;7.602;2022-12-05T11:59:21;7.07;;;6.40;;
357;SDS011;167;47.558;7.602;2022-12-05T12:04:30;6.13;;;5.73;;
357;SDS011;167;47.558;7.602;2022-12-05T12:14:50;6.03;;;5.63;;
357;SDS011;167;47.558;7.602;2022-12-05T12:17:33;6.77;;;6.27;;
357;SDS011;167;47.558;7.602;2022-12-05T12:25:19;6.40;;;6.00;;
357;SDS011;167;47.558;7.602;2022-12-05T12:32:55;5.70;;;5.30;;
357;SDS011;167;47.558;7.602;2022-12-05T12:35:26;4.93;;;4.63;;
357;SDS011;167;47.558;7.602;2022-12-05T12:42:52;6.10;;;5.60;;
357;SDS011;167;47.558;7.602;2022-12-05T12:45:25;5.70;;;5.30;;
357;SDS011;167;47.558;7.602;2022-12-05T12:48:03;6.07;;;5.60;;
357;SDS011;167;47.558;7.602;2022-12-05T12:50:33;5.40;;;5.00;;
357;SDS011;167;47.558;7.602;2022-12-05T12:58:27;5.57;;;5.17;;
357;SDS011;167;47.558;7.602;2022-12-05T13:03:30;4.63;;;4.33;;
357;SDS011;167;47.558;7.602;2022-12-05T13:06:03;4.90;;;4.60;;
357;SDS011;167;47.558;7.602;2022-12-05T13:11:07;3.13;;;2.90;;
357;SDS011;167;47.558;7.602;2022-12-05T13:13:35;3.30;;;3.10;;
357;SDS011;167;47.558;7.602;2022-12-05T13:16:04;3.80;;;3.50;;
357;SDS011;167;47.558;7.602;2022-12-05T13:18:32;3.77;;;3.57;;
357;SDS011;167;47.558;7.602;2022-12-05T13:20:59;2.70;;;2.60;;
357;SDS011;167;47.558;7.602;2022-12-05T13:23:29;2.83;;;2.63;;
357;SDS011;167;47.558;7.602;2022-12-05T13:25:56;2.60;;;2.50;;
357;SDS011;167;47.558;7.602;2022-12-05T13:30:52;2.30;;;2.20;;
357;SDS011;167;47.558;7.602;2022-12-05T13:33:23;2.67;;;2.57;;
357;SDS011;167;47.558;7.602;2022-12-05T13:35:52;2.53;;;2.43;;
357;SDS011;167;47.558;7.602;2022-12-05T13:38:37;2.53;;;2.30;;
357;SDS011;167;47.558;7.602;2022-12-05T13:41:32;3.80;;;2.80;;
357;SDS011;167;47.558;7.602;2022-12-05T13:44:41;2.30;;;2.20;;
357;SDS011;167;47.558;7.602;2022-12-05T13:47:19;2.40;;;2.30;;
357;SDS011;167;47.558;7.602;2022-12-05T13:49:48;2.20;;;2.10;;
357;SDS011;167;47.558;7.602;2022-12-05T13:52:21;2.30;;;2.20;;
357;SDS011;167;47.558;7.602;2022-12-05T13:54:54;2.87;;;2.67;;
357;SDS011;167;47.558;7.602;2022-12-05T14:07:49;2.90;;;2.70;;
357;SDS011;167;47.558;7.602;2022-12-05T14:13:37;2.43;;;2.33;;
357;SDS011;167;47.558;7.602;2022-12-05T14:16:35;3.30;;;3.00;;
357;SDS011;167;47.558;7.602;2022-12-05T14:18:45;2.67;;;2.53;;
357;SDS011;167;47.558;7.602;2022-12-05T14:21:16;2.37;;;2.27;;
357;SDS011;167;47.558;7.602;2022-12-05T14:36:30;3.43;;;2.97;;
357;SDS011;167;47.558;7.602;2022-12-05T14:38:57;3.50;;;3.30;;
357;SDS011;167;47.558;7.602;2022-12-05T14:41:30;3.20;;;3.00;;
357;SDS011;167;47.558;7.602;2022-12-05T14:43:57;3.73;;;3.53;;
357;SDS011;167;47.558;7.602;2022-12-05T14:46:24;2.90;;;2.70;;
357;SDS011;167;47.558;7.602;2022-12-05T14:48:51;3.13;;;2.93;;
357;SDS011;167;47.558;7.602;2022-12-05T14:53:55;4.10;;;3.40;;
357;SDS011;167;47.558;7.602;2022-12-05T14:56:22;4.10;;;3.87;;
357;SDS011;167;47.558;7.602;2022-12-05T14:58:57;4.87;;;4.57;;
357;SDS011;167;47.558;7.602;2022-12-05T15:01:43;4.10;;;3.80;;
357;SDS011;167;47.558;7.602;2022-12-05T15:04:23;4.67;;;4.27;;
357;SDS011;167;47.558;7.602;2022-12-05T15:06:54;3.80;;;3.50;;
357;SDS011;167;47.558;7.602;2022-12-05T15:09:28;3.80;;;3.60;;
357;SDS011;167;47.558;7.602;2022-12-05T15:11:55;4.00;;;3.60;;
357;SDS011;167;47.558;7.602;2022-12-05T15:14:22;3.90;;;3.60;;
357;SDS011;167;47.558;7.602;2022-12-05T15:16:50;3.13;;;2.93;;
357;SDS011;167;47.558;7.602;2022-12-05T15:19:20;4.10;;;3.80;;
357;SDS011;167;47.558;7.602;2022-12-05T15:21:49;2.80;;;2.60;;
357;SDS011;167;47.558;7.602;2022-12-05T15:24:17;3.50;;;2.50;;
357;SDS011;167;47.558;7.602;2022-12-05T15:26:47;2.10;;;2.00;;
357;SDS011;167;47.558;7.602;2022-12-05T15:31:59;2.33;;;2.23;;
357;SDS011;167;47.558;7.602;2022-12-05T15:34:35;2.37;;;2.27;;
357;SDS011;167;47.558;7.602;2022-12-05T15:37:05;3.10;;;2.90;;
357;SDS011;167;47.558;7.602;2022-12-05T15:42:48;3.73;;;3.43;;
357;SDS011;167;47.558;7.602;2022-12-05T15:45:18;3.63;;;3.33;;
357;SDS011;167;47.558;7.602;2022-12-05T15:47:48;2.87;;;2.67;;
357;SDS011;167;47.558;7.602;2022-12-05T15:57:56;18.70;;;11.00;;
357;SDS011;167;47.558;7.602;2022-12-05T16:00:25;8.70;;;6.53;;
357;SDS011;167;47.558;7.602;2022-12-05T16:03:14;6.70;;;5.53;;
357;SDS011;167;47.558;7.602;2022-12-05T16:06:12;13.30;;;8.80;;
357;SDS011;167;47.558;7.602;2022-12-05T16:08:30;21.47;;;11.67;;
357;SDS011;167;47.558;7.602;2022-12-05T16:11:08;4.97;;;4.10;;
357;SDS011;167;47.558;7.602;2022-12-05T16:13:34;19.10;;;12.30;;
357;SDS011;167;47.558;7.602;2022-12-05T16:16:00;9.00;;;7.10;;
357;SDS011;167;47.558;7.602;2022-12-05T16:18:28;10.97;;;7.90;;
357;SDS011;167;47.558;7.602;2022-12-05T16:20:54;18.23;;;16.37;;
357;SDS011;167;47.558;7.602;2022-12-05T16:25:50;9.00;;;8.30;;
357;SDS011;167;47.558;7.602;2022-12-05T16:28:17;5.00;;;4.63;;
357;SDS011;167;47.558;7.602;2022-12-05T16:30:53;4.87;;;4.50;;
357;SDS011;167;47.558;7.602;2022-12-05T16:33:20;3.93;;;3.63;;
357;SDS011;167;47.558;7.602;2022-12-05T16:35:46;4.40;;;4.10;;
357;SDS011;167;47.558;7.602;2022-12-05T16:38:19;4.53;;;4.23;;
357;SDS011;167;47.558;7.602;2022-12-05T16:43:18;3.47;;;3.27;;
357;SDS011;167;47.558;7.602;2022-12-05T16:45:48;4.30;;;3.80;;
357;SDS011;167;47.558;7.602;2022-12-05T16:48:15;3.93;;;3.63;;
357;SDS011;167;47.558;7.602;2022-12-05T16:50:42;4.07;;;3.77;;
357;SDS011;167;47.558;7.602;2022-12-05T16:55:37;4.83;;;4.47;;
357;SDS011;167;47.558;7.602;2022-12-05T16:58:04;4.87;;;4.53;;
357;SDS011;167;47.558;7.602;2022-12-05T17:00:30;4.47;;;4.17;;
357;SDS011;167;47.558;7.602;2022-12-05T17:02:57;4.83;;;4.30;;
357;SDS011;167;47.558;7.602;2022-12-05T17:05:23;5.10;;;4.70;;
357;SDS011;167;47.558;7.602;2022-12-05T17:07:49;4.53;;;4.13;;
357;SDS011;167;47.558;7.602;2022-12-05T17:10:16;5.13;;;4.70;;
357;SDS011;167;47.558;7.602;2022-12-05T17:12:42;6.03;;;5.53;;
357;SDS011;167;47.558;7.602;2022-12-05T17:15:12;5.43;;;4.93;;
357;SDS011;167;47.558;7.602;2022-12-05T17:17:40;7.27;;;4.90;;
357;SDS011;167;47.558;7.602;2022-12-05T17:20:06;5.13;;;4.73;;
357;SDS011;167;47.558;7.602;2022-12-05T17:22:32;4.30;;;4.00;;
357;SDS011;167;47.558;7.602;2022-12-05T17:24:58;4.73;;;4.33;;
357;SDS011;167;47.558;7.602;2022-12-05T17:27:24;5.53;;;5.03;;
357;SDS011;167;47.558;7.602;2022-12-05T17:29:50;6.03;;;5.63;;
357;SDS011;167;47.558;7.602;2022-12-05T17:32:16;6.43;;;4.80;;
357;SDS011;167;47.558;7.602;2022-12-05T17:34:42;5.73;;;5.33;;
357;SDS011;167;47.558;7.602;2022-12-05T17:37:08;5.30;;;4.90;;
357;SDS011;167;47.558;7.602;2022-12-05T17:39:34;5.30;;;4.90;;
357;SDS011;167;47.558;7.602;2022-12-05T17:42:00;5.17;;;4.63;;
357;SDS011;167;47.558;7.602;2022-12-05T17:44:26;5.10;;;4.60;;
357;SDS011;167;47.558;7.602;2022-12-05T17:46:52;5.70;;;5.30;;
357;SDS011;167;47.558;7.602;2022-12-05T17:49:18;5.90;;;5.43;;
357;SDS011;167;47.558;7.602;2022-12-05T17:51:44;5.50;;;5.10;;
357;SDS011;167;47.558;7.602;2022-12-05T17:54:10;4.80;;;4.50;;
357;SDS011;167;47.558;7.602;2022-12-05T17:56:36;6.33;;;5.80;;
357;SDS011;167;47.558;7.602;2022-12-05T17:59:02;5.53;;;5.10;;
357;SDS011;167;47.558;7.602;2022-12-05T18:01:28;5.23;;;4.83;;
357;SDS011;167;47.558;7.602;2022-12-05T18:03:54;5.60;;;5.10;;
357;SDS011;167;47.558;7.602;2022-12-05T18:06:20;5.47;;;5.03;;
357;SDS011;167;47.558;7.602;2022-12-05T18:08:46;6.00;;;5.43;;
357;SDS011;167;47.558;7.602;2022-12-05T18:11:13;6.37;;;5.70;;
357;SDS011;167;47.558;7.602;2022-12-05T18:13:39;5.80;;;5.30;;
357;SDS011;167;47.558;7.602;2022-12-05T18:16:05;6.33;;;5.73;;
357;SDS011;167;47.558;7.602;2022-12-05T18:18:32;6.80;;;6.20;;
357;SDS011;167;47.558;7.602;2022-12-05T18:21:04;6.60;;;6.00;;